sensor_id;sensor_type;location;lat;lon;timestamp;pressure;altitude;pressure_sealevel;temperature;humidity
18749;BME280;9503;53.560;10.246;2023-10-13T00:00:38;100526.69;;;18.51;79.79
18749;BME280;9503;53.560;10.246;2023-10-13T00:03:07;100526.91;;;18.66;79.15
18749;BME280;9503;53.560;10.246;2023-10-13T00:05:40;100523.56;;;18.76;79.28
18749;BME280;9503;53.560;10.246;2023-10-13T00:08:08;100527.16;;;18.88;78.73
18749;BME280;9503;53.560;10.246;2023-10-13T00:10:36;100534.06;;;18.87;78.92
18749;BME280;9503;53.560;10.246;2023-10-13T00:13:03;100522.88;;;18.93;78.52
18749;BME280;9503;53.560;10.246;2023-10-13T00:15:39;100530.75;;;19.02;78.38
18749;BME280;9503;53.560;10.246;2023-10-13T00:18:11;100517.75;;;19.02;78.42
18749;BME280;9503;53.560;10.246;2023-10-13T00:20:40;100519.59;;;19.11;78.02
18749;BME280;9503;53.560;10.246;2023-10-13T00:23:13;100513.50;;;19.07;78.24
18749;BME280;9503;53.560;10.246;2023-10-13T00:25:40;100510.88;;;19.04;78.25
18749;BME280;9503;53.560;10.246;2023-10-13T00:28:15;100504.75;;;19.02;78.46
18749;BME280;9503;53.560;10.246;2023-10-13T00:30:49;100516.09;;;19.09;78.42
18749;BME280;9503;53.560;10.246;2023-10-13T00:33:18;100507.50;;;19.14;78.20
18749;BME280;9503;53.560;10.246;2023-10-13T00:35:49;100505.75;;;19.10;78.45
18749;BME280;9503;53.560;10.246;2023-10-13T00:38:17;100506.63;;;19.14;78.43
18749;BME280;9503;53.560;10.246;2023-10-13T00:40:45;100497.97;;;19.16;78.28
18749;BME280;9503;53.560;10.246;2023-10-13T00:43:18;100495.44;;;19.22;78.27
18749;BME280;9503;53.560;10.246;2023-10-13T00:46:02;100497.22;;;19.25;78.27
18749;BME280;9503;53.560;10.246;2023-10-13T00:48:36;100496.34;;;19.24;78.25
18749;BME280;9503;53.560;10.246;2023-10-13T00:51:17;100485.91;;;19.21;78.33
18749;BME280;9503;53.560;10.246;2023-10-13T00:53:47;100477.22;;;19.18;78.47
18749;BME280;9503;53.560;10.246;2023-10-13T00:56:16;100472.91;;;19.23;78.54
18749;BME280;9503;53.560;10.246;2023-10-13T00:58:47;100469.25;;;19.01;79.60
18749;BME280;9503;53.560;10.246;2023-10-13T01:01:15;100478.22;;;19.33;78.65
18749;BME280;9503;53.560;10.246;2023-10-13T01:03:47;100468.69;;;19.36;78.40
18749;BME280;9503;53.560;10.246;2023-10-13T01:06:16;100470.50;;;19.43;78.50
18749;BME280;9503;53.560;10.246;2023-10-13T01:08:43;100468.75;;;19.45;78.60
18749;BME280;9503;53.560;10.246;2023-10-13T01:11:10;100464.44;;;19.44;78.94
18749;BME280;9503;53.560;10.246;2023-10-13T01:13:36;100455.81;;;19.49;78.63
18749;BME280;9503;53.560;10.246;2023-10-13T01:16:03;100462.75;;;19.49;79.29
18749;BME280;9503;53.560;10.246;2023-10-13T01:18:29;100453.03;;;19.29;80.23
18749;BME280;9503;53.560;10.246;2023-10-13T01:20:57;100449.69;;;19.44;80.09
18749;BME280;9503;53.560;10.246;2023-10-13T01:23:26;100448.13;;;19.63;79.40
18749;BME280;9503;53.560;10.246;2023-10-13T01:26:03;100434.19;;;19.55;79.83
18749;BME280;9503;53.560;10.246;2023-10-13T01:28:30;100429.78;;;19.46;80.05
18749;BME280;9503;53.560;10.246;2023-10-13T01:31:10;100434.13;;;19.52;80.42
18749;BME280;9503;53.560;10.246;2023-10-13T01:33:36;100427.97;;;19.36;80.97
18749;BME280;9503;53.560;10.246;2023-10-13T01:36:03;100420.16;;;19.35;81.30
18749;BME280;9503;53.560;10.246;2023-10-13T01:38:33;100417.63;;;19.42;81.08
18749;BME280;9503;53.560;10.246;2023-10-13T01:41:05;100417.78;;;19.62;80.71
18749;BME280;9503;53.560;10.246;2023-10-13T01:43:30;100422.00;;;19.48;81.58
18749;BME280;9503;53.560;10.246;2023-10-13T01:45:57;100417.78;;;19.65;80.32
18749;BME280;9503;53.560;10.246;2023-10-13T01:48:22;100407.47;;;19.80;79.91
18749;BME280;9503;53.560;10.246;2023-10-13T01:50:49;100402.28;;;19.79;80.30
18749;BME280;9503;53.560;10.246;2023-10-13T01:53:21;100396.19;;;19.80;80.31
18749;BME280;9503;53.560;10.246;2023-10-13T01:55:49;100403.94;;;19.65;80.71
18749;BME280;9503;53.560;10.246;2023-10-13T01:58:16;100391.94;;;19.96;80.19
18749;BME280;9503;53.560;10.246;2023-10-13T02:00:44;100389.38;;;19.99;79.55
18749;BME280;9503;53.560;10.246;2023-10-13T02:03:12;100387.56;;;19.88;80.02
18749;BME280;9503;53.560;10.246;2023-10-13T02:05:41;100383.16;;;19.71;81.08
18749;BME280;9503;53.560;10.246;2023-10-13T02:08:13;100375.38;;;19.81;80.75
18749;BME280;9503;53.560;10.246;2023-10-13T02:10:44;100373.72;;;19.94;80.20
18749;BME280;9503;53.560;10.246;2023-10-13T02:13:16;100365.78;;;19.65;81.34
18749;BME280;9503;53.560;10.246;2023-10-13T02:15:43;100365.84;;;19.80;81.00
18749;BME280;9503;53.560;10.246;2023-10-13T02:18:13;100359.81;;;19.84;80.87
18749;BME280;9503;53.560;10.246;2023-10-13T02:20:39;100356.28;;;19.73;81.09
18749;BME280;9503;53.560;10.246;2023-10-13T02:23:11;100352.03;;;19.92;80.93
18749;BME280;9503;53.560;10.246;2023-10-13T02:25:37;100339.03;;;19.95;80.81
18749;BME280;9503;53.560;10.246;2023-10-13T02:28:11;100337.22;;;19.76;81.72
18749;BME280;9503;53.560;10.246;2023-10-13T02:30:41;100338.97;;;19.81;81.88
18749;BME280;9503;53.560;10.246;2023-10-13T02:33:11;100337.28;;;19.94;81.56
18749;BME280;9503;53.560;10.246;2023-10-13T02:35:38;100332.91;;;19.87;81.50
18749;BME280;9503;53.560;10.246;2023-10-13T02:38:09;100332.94;;;19.93;81.63
18749;BME280;9503;53.560;10.246;2023-10-13T02:40:37;100326.94;;;20.12;80.99
18749;BME280;9503;53.560;10.246;2023-10-13T02:43:04;100323.47;;;20.13;80.79
18749;BME280;9503;53.560;10.246;2023-10-13T02:45:31;100330.41;;;20.14;80.74
18749;BME280;9503;53.560;10.246;2023-10-13T02:47:59;100319.88;;;19.76;82.94
18749;BME280;9503;53.560;10.246;2023-10-13T02:50:40;100306.09;;;20.02;81.93
18749;BME280;9503;53.560;10.246;2023-10-13T02:53:10;100309.59;;;20.14;81.08
18749;BME280;9503;53.560;10.246;2023-10-13T02:55:38;100305.22;;;20.12;81.09
18749;BME280;9503;53.560;10.246;2023-10-13T02:58:05;100303.44;;;19.97;82.24
18749;BME280;9503;53.560;10.246;2023-10-13T03:00:33;100296.50;;;19.90;82.34
18749;BME280;9503;53.560;10.246;2023-10-13T03:03:01;100290.50;;;20.17;81.73
18749;BME280;9503;53.560;10.246;2023-10-13T03:05:27;100294.75;;;19.89;82.71
18749;BME280;9503;53.560;10.246;2023-10-13T03:07:56;100282.63;;;19.88;83.10
18749;BME280;9503;53.560;10.246;2023-10-13T03:10:24;100288.66;;;19.76;83.77
18749;BME280;9503;53.560;10.246;2023-10-13T03:12:54;100274.81;;;19.86;83.32
18749;BME280;9503;53.560;10.246;2023-10-13T03:15:21;100271.38;;;19.94;83.43
18749;BME280;9503;53.560;10.246;2023-10-13T03:17:56;100271.34;;;19.97;83.10
18749;BME280;9503;53.560;10.246;2023-10-13T03:20:25;100266.16;;;19.92;83.63
18749;BME280;9503;53.560;10.246;2023-10-13T03:22:57;100267.06;;;20.14;82.67
18749;BME280;9503;53.560;10.246;2023-10-13T03:25:22;100252.31;;;20.07;83.33
18749;BME280;9503;53.560;10.246;2023-10-13T03:27:55;100258.34;;;19.84;84.19
18749;BME280;9503;53.560;10.246;2023-10-13T03:30:27;100250.59;;;20.06;83.76
18749;BME280;9503;53.560;10.246;2023-10-13T03:33:00;100251.41;;;19.91;84.65
18749;BME280;9503;53.560;10.246;2023-10-13T03:35:33;100239.22;;;19.82;84.85
18749;BME280;9503;53.560;10.246;2023-10-13T03:38:04;100244.38;;;19.64;85.81
18749;BME280;9503;53.560;10.246;2023-10-13T03:40:36;100242.72;;;19.89;85.23
18749;BME280;9503;53.560;10.246;2023-10-13T03:43:05;100242.75;;;20.01;84.46
18749;BME280;9503;53.560;10.246;2023-10-13T03:45:33;100247.00;;;19.64;86.19
18749;BME280;9503;53.560;10.246;2023-10-13T03:48:04;100248.78;;;19.80;85.80
18749;BME280;9503;53.560;10.246;2023-10-13T03:50:35;100238.38;;;19.79;85.99
18749;BME280;9503;53.560;10.246;2023-10-13T03:53:11;100230.63;;;20.06;85.01
18749;BME280;9503;53.560;10.246;2023-10-13T03:55:38;100220.19;;;19.91;84.90
18749;BME280;9503;53.560;10.246;2023-10-13T03:58:05;100220.19;;;20.02;85.59
18749;BME280;9503;53.560;10.246;2023-10-13T04:00:36;100211.44;;;19.68;86.83
18749;BME280;9503;53.560;10.246;2023-10-13T04:03:04;100208.91;;;19.97;86.19
18749;BME280;9503;53.560;10.246;2023-10-13T04:05:36;100210.69;;;20.05;85.96
18749;BME280;9503;53.560;10.246;2023-10-13T04:08:08;100197.63;;;20.01;86.34
18749;BME280;9503;53.560;10.246;2023-10-13T04:10:52;100196.78;;;19.99;86.48
18749;BME280;9503;53.560;10.246;2023-10-13T04:13:36;100199.41;;;20.14;85.91
18749;BME280;9503;53.560;10.246;2023-10-13T04:16:20;100193.28;;;19.78;87.81
18749;BME280;9503;53.560;10.246;2023-10-13T04:19:03;100195.03;;;19.85;88.10
18749;BME280;9503;53.560;10.246;2023-10-13T04:21:36;100199.34;;;19.76;88.00
18749;BME280;9503;53.560;10.246;2023-10-13T04:24:08;100197.63;;;19.88;88.35
18749;BME280;9503;53.560;10.246;2023-10-13T04:26:48;100192.44;;;20.04;87.84
18749;BME280;9503;53.560;10.246;2023-10-13T04:29:44;100181.19;;;20.20;87.62
18749;BME280;9503;53.560;10.246;2023-10-13T04:32:17;100170.75;;;20.14;88.13
18749;BME280;9503;53.560;10.246;2023-10-13T04:34:54;100167.28;;;20.24;88.24
18749;BME280;9503;53.560;10.246;2023-10-13T04:37:24;100174.22;;;20.40;87.47
18749;BME280;9503;53.560;10.246;2023-10-13T04:39:55;100153.41;;;20.47;86.87
18749;BME280;9503;53.560;10.246;2023-10-13T04:42:34;100159.47;;;20.55;87.39
18749;BME280;9503;53.560;10.246;2023-10-13T04:45:16;100158.59;;;20.36;87.79
18749;BME280;9503;53.560;10.246;2023-10-13T04:48:04;100149.91;;;20.63;87.28
18749;BME280;9503;53.560;10.246;2023-10-13T04:50:44;100140.38;;;20.43;87.49
18749;BME280;9503;53.560;10.246;2023-10-13T04:53:12;100136.88;;;20.67;87.80
18749;BME280;9503;53.560;10.246;2023-10-13T04:55:55;100126.44;;;20.69;87.53
18749;BME280;9503;53.560;10.246;2023-10-13T04:58:34;100132.47;;;20.89;87.03
18749;BME280;9503;53.560;10.246;2023-10-13T05:01:26;100128.09;;;20.97;86.67
18749;BME280;9503;53.560;10.246;2023-10-13T05:04:25;100115.06;;;20.97;86.75
18749;BME280;9503;53.560;10.246;2023-10-13T05:07:04;100112.47;;;20.91;86.39
18749;BME280;9503;53.560;10.246;2023-10-13T05:09:49;100110.00;;;20.52;88.75
18749;BME280;9503;53.560;10.246;2023-10-13T05:12:33;100103.81;;;20.88;87.87
18749;BME280;9503;53.560;10.246;2023-10-13T05:15:17;100095.00;;;21.13;87.03
18749;BME280;9503;53.560;10.246;2023-10-13T05:18:01;100093.28;;;21.05;86.81
18749;BME280;9503;53.560;10.246;2023-10-13T05:20:45;100085.50;;;21.00;87.59
18749;BME280;9503;53.560;10.246;2023-10-13T05:23:29;100081.97;;;21.07;87.85
18749;BME280;9503;53.560;10.246;2023-10-13T05:26:14;100082.78;;;21.24;87.22
18749;BME280;9503;53.560;10.246;2023-10-13T05:28:58;100075.00;;;21.15;87.23
18749;BME280;9503;53.560;10.246;2023-10-13T05:31:42;100068.81;;;21.39;86.38
18749;BME280;9503;53.560;10.246;2023-10-13T05:34:26;100072.34;;;21.20;87.15
18749;BME280;9503;53.560;10.246;2023-10-13T05:37:10;100071.50;;;21.15;87.79
18749;BME280;9503;53.560;10.246;2023-10-13T05:39:54;100070.66;;;21.14;88.23
18749;BME280;9503;53.560;10.246;2023-10-13T05:42:40;100070.63;;;21.19;88.45
18749;BME280;9503;53.560;10.246;2023-10-13T05:45:23;100066.16;;;21.44;87.49
18749;BME280;9503;53.560;10.246;2023-10-13T05:48:06;100065.34;;;21.37;87.41
18749;BME280;9503;53.560;10.246;2023-10-13T05:50:39;100064.41;;;21.44;87.46
18749;BME280;9503;53.560;10.246;2023-10-13T05:53:43;100067.69;;;21.71;86.31
18749;BME280;9503;53.560;10.246;2023-10-13T05:56:26;100055.50;;;21.73;86.15
18749;BME280;9503;53.560;10.246;2023-10-13T05:59:12;100053.88;;;21.60;86.63
18749;BME280;9503;53.560;10.246;2023-10-13T06:01:56;100053.00;;;21.59;87.23
18749;BME280;9503;53.560;10.246;2023-10-13T06:04:40;100050.41;;;21.58;88.00
18749;BME280;9503;53.560;10.246;2023-10-13T06:07:24;100052.06;;;21.68;87.01
18749;BME280;9503;53.560;10.246;2023-10-13T06:10:08;100058.22;;;21.58;87.66
18749;BME280;9503;53.560;10.246;2023-10-13T06:12:54;100046.88;;;21.68;87.52
18749;BME280;9503;53.560;10.246;2023-10-13T06:15:40;100043.38;;;21.69;87.44
18749;BME280;9503;53.560;10.246;2023-10-13T06:18:24;100045.00;;;21.79;87.23
18749;BME280;9503;53.560;10.246;2023-10-13T06:21:08;100040.44;;;22.04;86.73
18749;BME280;9503;53.560;10.246;2023-10-13T06:23:52;100040.66;;;21.78;87.60
18749;BME280;9503;53.560;10.246;2023-10-13T06:26:36;100034.84;;;21.44;88.93
18749;BME280;9503;53.560;10.246;2023-10-13T06:29:20;100039.13;;;21.56;89.10
18749;BME280;9503;53.560;10.246;2023-10-13T06:31:48;100036.53;;;21.51;91.04
18749;BME280;9503;53.560;10.246;2023-10-13T06:34:14;100030.25;;;21.73;89.53
18749;BME280;9503;53.560;10.246;2023-10-13T06:36:41;100030.16;;;21.89;89.16
18749;BME280;9503;53.560;10.246;2023-10-13T06:39:11;100029.13;;;22.05;87.73
18749;BME280;9503;53.560;10.246;2023-10-13T06:42:00;100019.66;;;21.93;88.38
18749;BME280;9503;53.560;10.246;2023-10-13T06:44:28;100020.53;;;21.92;88.66
18749;BME280;9503;53.560;10.246;2023-10-13T06:46:58;100018.69;;;22.05;87.95
18749;BME280;9503;53.560;10.246;2023-10-13T06:49:29;100015.16;;;22.12;88.09
18749;BME280;9503;53.560;10.246;2023-10-13T06:51:58;100015.16;;;22.11;88.16
18749;BME280;9503;53.560;10.246;2023-10-13T06:54:26;100020.38;;;22.11;88.30
18749;BME280;9503;53.560;10.246;2023-10-13T06:56:53;100012.63;;;22.00;89.17
18749;BME280;9503;53.560;10.246;2023-10-13T06:59:20;100007.38;;;22.01;88.82
18749;BME280;9503;53.560;10.246;2023-10-13T07:01:51;100010.03;;;21.98;88.94
18749;BME280;9503;53.560;10.246;2023-10-13T07:04:19;100000.53;;;21.88;89.25
18749;BME280;9503;53.560;10.246;2023-10-13T07:06:47;100006.47;;;22.07;88.86
18749;BME280;9503;53.560;10.246;2023-10-13T07:09:14;99990.09;;;21.91;89.62
18749;BME280;9503;53.560;10.246;2023-10-13T07:12:05;99985.00;;;21.77;89.72
18749;BME280;9503;53.560;10.246;2023-10-13T07:14:33;99985.59;;;22.09;89.11
18749;BME280;9503;53.560;10.246;2023-10-13T07:17:02;99980.38;;;22.02;89.62
18749;BME280;9503;53.560;10.246;2023-10-13T07:19:31;99970.84;;;22.01;89.64
18749;BME280;9503;53.560;10.246;2023-10-13T07:22:01;99973.31;;;22.17;88.71
18749;BME280;9503;53.560;10.246;2023-10-13T07:24:44;99980.34;;;22.10;89.70
18749;BME280;9503;53.560;10.246;2023-10-13T07:27:15;99972.00;;;21.73;91.31
18749;BME280;9503;53.560;10.246;2023-10-13T07:29:48;99971.00;;;21.85;91.45
18749;BME280;9503;53.560;10.246;2023-10-13T07:32:30;99956.84;;;22.07;90.79
18749;BME280;9503;53.560;10.246;2023-10-13T07:35:03;99951.41;;;21.41;92.31
18749;BME280;9503;53.560;10.246;2023-10-13T07:37:36;99948.34;;;21.91;91.57
18749;BME280;9503;53.560;10.246;2023-10-13T07:40:08;99939.31;;;22.21;89.75
18749;BME280;9503;53.560;10.246;2023-10-13T07:42:48;99937.81;;;21.99;90.61
18749;BME280;9503;53.560;10.246;2023-10-13T07:45:14;99939.00;;;21.66;91.53
18749;BME280;9503;53.560;10.246;2023-10-13T07:47:43;99923.19;;;21.84;91.39
18749;BME280;9503;53.560;10.246;2023-10-13T07:50:13;99919.13;;;21.56;92.18
18749;BME280;9503;53.560;10.246;2023-10-13T07:52:39;99918.72;;;21.92;91.49
18749;BME280;9503;53.560;10.246;2023-10-13T07:55:23;99894.41;;;21.90;91.68
18749;BME280;9503;53.560;10.246;2023-10-13T07:57:50;99900.31;;;22.03;90.60
18749;BME280;9503;53.560;10.246;2023-10-13T08:00:20;99895.28;;;21.89;91.41
18749;BME280;9503;53.560;10.246;2023-10-13T08:02:57;99880.63;;;21.76;91.91
18749;BME280;9503;53.560;10.246;2023-10-13T08:05:34;99874.22;;;22.04;91.01
18749;BME280;9503;53.560;10.246;2023-10-13T08:08:21;99882.25;;;21.89;92.32
18749;BME280;9503;53.560;10.246;2023-10-13T08:10:51;99867.09;;;22.20;90.73
18749;BME280;9503;53.560;10.246;2023-10-13T08:13:21;99861.09;;;22.12;91.12
18749;BME280;9503;53.560;10.246;2023-10-13T08:15:48;99858.13;;;21.67;92.23
18749;BME280;9503;53.560;10.246;2023-10-13T08:18:15;99858.91;;;21.75;92.56
18749;BME280;9503;53.560;10.246;2023-10-13T08:20:46;99845.84;;;21.75;92.48
18749;BME280;9503;53.560;10.246;2023-10-13T08:23:17;99830.09;;;21.83;91.53
18749;BME280;9503;53.560;10.246;2023-10-13T08:25:59;99830.66;;;22.11;90.42
18749;BME280;9503;53.560;10.246;2023-10-13T08:28:55;99833.16;;;22.17;89.59
18749;BME280;9503;53.560;10.246;2023-10-13T08:31:22;99829.47;;;22.32;90.08
18749;BME280;9503;53.560;10.246;2023-10-13T08:33:48;99822.19;;;21.89;91.94
18749;BME280;9503;53.560;10.246;2023-10-13T08:36:16;99821.16;;;22.04;90.82
18749;BME280;9503;53.560;10.246;2023-10-13T08:38:54;99810.53;;;22.19;90.10
18749;BME280;9503;53.560;10.246;2023-10-13T08:41:21;99807.16;;;22.10;90.32
18749;BME280;9503;53.560;10.246;2023-10-13T08:46:35;99810.81;;;21.93;91.33
18749;BME280;9503;53.560;10.246;2023-10-13T08:49:30;99814.00;;;21.44;92.66
18749;BME280;9503;53.560;10.246;2023-10-13T08:52:09;99814.72;;;21.59;93.53
18749;BME280;9503;53.560;10.246;2023-10-13T08:54:51;99803.31;;;21.66;94.04
18749;BME280;9503;53.560;10.246;2023-10-13T08:57:30;99797.09;;;21.79;92.91
18749;BME280;9503;53.560;10.246;2023-10-13T08:59:58;99801.34;;;21.86;91.83
18749;BME280;9503;53.560;10.246;2023-10-13T09:02:45;99812.97;;;21.59;93.05
18749;BME280;9503;53.560;10.246;2023-10-13T09:05:46;99810.81;;;21.13;95.51
18749;BME280;9503;53.560;10.246;2023-10-13T09:08:28;99817.31;;;21.62;93.33
18749;BME280;9503;53.560;10.246;2023-10-13T09:11:02;99813.91;;;21.55;93.59
18749;BME280;9503;53.560;10.246;2023-10-13T09:13:36;99812.97;;;21.59;93.79
18749;BME280;9503;53.560;10.246;2023-10-13T09:16:11;99813.38;;;21.19;94.72
18749;BME280;9503;53.560;10.246;2023-10-13T09:18:41;99809.31;;;20.89;96.20
18749;BME280;9503;53.560;10.246;2023-10-13T09:21:15;99810.06;;;21.04;96.79
18749;BME280;9503;53.560;10.246;2023-10-13T09:24:14;99821.75;;;21.54;94.63
18749;BME280;9503;53.560;10.246;2023-10-13T09:26:46;99819.22;;;21.44;95.58
18749;BME280;9503;53.560;10.246;2023-10-13T09:29:15;99800.91;;;21.52;94.71
18749;BME280;9503;53.560;10.246;2023-10-13T09:31:44;99815.41;;;21.76;93.99
18749;BME280;9503;53.560;10.246;2023-10-13T09:34:10;99800.69;;;21.69;94.78
18749;BME280;9503;53.560;10.246;2023-10-13T09:36:37;99799.22;;;21.46;95.17
18749;BME280;9503;53.560;10.246;2023-10-13T09:39:03;99790.69;;;21.32;96.48
18749;BME280;9503;53.560;10.246;2023-10-13T09:41:43;99794.63;;;21.65;95.31
18749;BME280;9503;53.560;10.246;2023-10-13T09:44:10;99786.84;;;21.64;96.37
18749;BME280;9503;53.560;10.246;2023-10-13T09:46:37;99785.13;;;21.63;96.88
18749;BME280;9503;53.560;10.246;2023-10-13T09:49:11;99791.41;;;21.46;98.23
18749;BME280;9503;53.560;10.246;2023-10-13T09:51:48;99782.63;;;21.54;97.46
18749;BME280;9503;53.560;10.246;2023-10-13T09:54:19;99785.25;;;21.50;95.57
18749;BME280;9503;53.560;10.246;2023-10-13T09:56:50;99778.66;;;21.91;94.48
18749;BME280;9503;53.560;10.246;2023-10-13T09:59:20;99779.84;;;21.67;96.04
18749;BME280;9503;53.560;10.246;2023-10-13T10:01:51;99771.78;;;21.84;93.77
18749;BME280;9503;53.560;10.246;2023-10-13T10:04:18;99764.66;;;21.98;93.86
18749;BME280;9503;53.560;10.246;2023-10-13T10:06:51;99765.53;;;21.97;93.37
18749;BME280;9503;53.560;10.246;2023-10-13T10:09:18;99767.56;;;20.92;95.90
18749;BME280;9503;53.560;10.246;2023-10-13T10:12:01;99757.81;;;21.90;95.19
18749;BME280;9503;53.560;10.246;2023-10-13T10:14:44;99742.78;;;22.05;93.44
18749;BME280;9503;53.560;10.246;2023-10-13T10:17:14;99727.97;;;22.07;93.78
18749;BME280;9503;53.560;10.246;2023-10-13T10:19:48;99731.63;;;21.94;93.33
18749;BME280;9503;53.560;10.246;2023-10-13T10:22:24;99718.69;;;22.45;91.80
18749;BME280;9503;53.560;10.246;2023-10-13T10:24:56;99720.91;;;22.16;92.83
18749;BME280;9503;53.560;10.246;2023-10-13T10:27:30;99720.31;;;22.52;91.49
18749;BME280;9503;53.560;10.246;2023-10-13T10:29:57;99715.75;;;22.13;92.14
18749;BME280;9503;53.560;10.246;2023-10-13T10:32:35;99705.34;;;21.45;96.09
18749;BME280;9503;53.560;10.246;2023-10-13T10:35:06;99697.25;;;22.25;93.06
18749;BME280;9503;53.560;10.246;2023-10-13T10:37:34;99697.63;;;22.56;91.67
18749;BME280;9503;53.560;10.246;2023-10-13T10:40:01;99703.97;;;22.92;90.49
18749;BME280;9503;53.560;10.246;2023-10-13T10:42:32;99697.53;;;22.60;91.37
18749;BME280;9503;53.560;10.246;2023-10-13T10:44:59;99696.41;;;22.74;90.42
18749;BME280;9503;53.560;10.246;2023-10-13T10:47:31;99692.03;;;22.76;91.32
18749;BME280;9503;53.560;10.246;2023-10-13T10:49:58;99683.72;;;22.52;93.14
18749;BME280;9503;53.560;10.246;2023-10-13T10:52:27;99675.16;;;22.95;90.82
18749;BME280;9503;53.560;10.246;2023-10-13T10:55:02;99668.88;;;23.04;89.27
18749;BME280;9503;53.560;10.246;2023-10-13T10:57:33;99659.97;;;23.12;89.38
18749;BME280;9503;53.560;10.246;2023-10-13T11:00:03;99654.06;;;23.03;89.36
18749;BME280;9503;53.560;10.246;2023-10-13T11:02:38;99630.84;;;23.31;89.01
18749;BME280;9503;53.560;10.246;2023-10-13T11:05:06;99639.41;;;23.78;87.75
18749;BME280;9503;53.560;10.246;2023-10-13T11:07:35;99631.63;;;23.34;88.51
18749;BME280;9503;53.560;10.246;2023-10-13T11:10:07;99637.78;;;23.32;90.21
18749;BME280;9503;53.560;10.246;2023-10-13T11:12:38;99632.47;;;23.36;88.82
18749;BME280;9503;53.560;10.246;2023-10-13T11:15:07;99632.06;;;24.27;86.98
18749;BME280;9503;53.560;10.246;2023-10-13T11:17:39;99632.66;;;24.05;87.00
18749;BME280;9503;53.560;10.246;2023-10-13T11:20:10;99626.31;;;23.78;87.92
18749;BME280;9503;53.560;10.246;2023-10-13T11:22:41;99626.94;;;23.89;87.64
18749;BME280;9503;53.560;10.246;2023-10-13T11:25:20;99593.47;;;24.00;86.86
18749;BME280;9503;53.560;10.246;2023-10-13T11:27:50;99585.56;;;24.02;86.65
18749;BME280;9503;53.560;10.246;2023-10-13T11:30:25;99574.47;;;23.92;87.62
18749;BME280;9503;53.560;10.246;2023-10-13T11:33:03;99566.50;;;23.61;89.36
18749;BME280;9503;53.560;10.246;2023-10-13T11:35:31;99565.56;;;23.99;88.01
18749;BME280;9503;53.560;10.246;2023-10-13T11:38:12;99560.47;;;24.27;86.62
18749;BME280;9503;53.560;10.246;2023-10-13T11:40:39;99555.34;;;24.24;86.56
18749;BME280;9503;53.560;10.246;2023-10-13T11:43:34;99543.41;;;24.45;84.37
18749;BME280;9503;53.560;10.246;2023-10-13T11:46:13;99550.72;;;24.34;86.09
18749;BME280;9503;53.560;10.246;2023-10-13T11:48:42;99543.09;;;24.24;86.53
18749;BME280;9503;53.560;10.246;2023-10-13T11:51:10;99525.69;;;24.55;84.79
18749;BME280;9503;53.560;10.246;2023-10-13T11:53:43;99521.16;;;24.91;83.44
18749;BME280;9503;53.560;10.246;2023-10-13T11:56:09;99530.94;;;24.55;84.65
18749;BME280;9503;53.560;10.246;2023-10-13T11:58:38;99505.47;;;24.27;85.28
18749;BME280;9503;53.560;10.246;2023-10-13T12:01:05;99515.13;;;24.58;85.10
18749;BME280;9503;53.560;10.246;2023-10-13T12:03:47;99505.47;;;23.94;86.42
18749;BME280;9503;53.560;10.246;2023-10-13T12:06:32;99513.59;;;24.80;83.84
18749;BME280;9503;53.560;10.246;2023-10-13T12:09:12;99503.03;;;24.52;84.40
18749;BME280;9503;53.560;10.246;2023-10-13T12:11:40;99513.69;;;25.06;82.06
18749;BME280;9503;53.560;10.246;2023-10-13T12:14:08;99525.38;;;24.65;83.51
18749;BME280;9503;53.560;10.246;2023-10-13T12:16:42;99511.25;;;24.40;85.38
18749;BME280;9503;53.560;10.246;2023-10-13T12:19:14;99512.41;;;24.28;86.06
18749;BME280;9503;53.560;10.246;2023-10-13T12:21:42;99501.91;;;23.63;87.53
18749;BME280;9503;53.560;10.246;2023-10-13T12:24:09;99483.75;;;24.55;84.45
18749;BME280;9503;53.560;10.246;2023-10-13T12:26:47;99491.88;;;25.06;82.81
18749;BME280;9503;53.560;10.246;2023-10-13T12:29:15;99492.31;;;24.61;82.62
18749;BME280;9503;53.560;10.246;2023-10-13T12:31:48;99486.00;;;24.96;83.16
18749;BME280;9503;53.560;10.246;2023-10-13T12:34:26;99487.00;;;24.32;84.68
18749;BME280;9503;53.560;10.246;2023-10-13T12:37:12;99499.00;;;24.71;83.63
18749;BME280;9503;53.560;10.246;2023-10-13T12:40:00;99485.28;;;23.98;84.45
18749;BME280;9503;53.560;10.246;2023-10-13T12:42:43;99480.59;;;24.73;82.09
18749;BME280;9503;53.560;10.246;2023-10-13T12:45:44;99494.88;;;24.63;84.41
18749;BME280;9503;53.560;10.246;2023-10-13T12:48:29;99490.09;;;24.47;82.37
18749;BME280;9503;53.560;10.246;2023-10-13T12:51:13;99470.88;;;24.47;83.85
18749;BME280;9503;53.560;10.246;2023-10-13T12:53:46;99468.63;;;23.68;86.36
18749;BME280;9503;53.560;10.246;2023-10-13T12:56:13;99463.88;;;25.06;80.83
18749;BME280;9503;53.560;10.246;2023-10-13T12:58:40;99459.59;;;25.30;80.11
18749;BME280;9503;53.560;10.246;2023-10-13T13:01:08;99472.03;;;24.96;81.85
18749;BME280;9503;53.560;10.246;2023-10-13T13:03:34;99463.16;;;25.00;80.38
18749;BME280;9503;53.560;10.246;2023-10-13T13:06:01;99461.31;;;24.74;82.19
18749;BME280;9503;53.560;10.246;2023-10-13T13:08:32;99462.09;;;25.07;80.90
18749;BME280;9503;53.560;10.246;2023-10-13T13:11:00;99461.06;;;25.11;79.48
18749;BME280;9503;53.560;10.246;2023-10-13T13:13:28;99459.09;;;25.46;77.83
18749;BME280;9503;53.560;10.246;2023-10-13T13:15:55;99455.03;;;25.88;77.03
18749;BME280;9503;53.560;10.246;2023-10-13T13:18:23;99439.22;;;25.90;76.61
18749;BME280;9503;53.560;10.246;2023-10-13T13:20:49;99440.47;;;25.80;77.59
18749;BME280;9503;53.560;10.246;2023-10-13T13:23:19;99438.94;;;25.98;77.00
18749;BME280;9503;53.560;10.246;2023-10-13T13:25:47;99430.25;;;25.71;77.02
18749;BME280;9503;53.560;10.246;2023-10-13T13:28:14;99433.59;;;25.23;79.83
18749;BME280;9503;53.560;10.246;2023-10-13T13:30:40;99423.13;;;25.48;78.94